sensor_id;sensor_type;location;lat;lon;timestamp;P1;durP1;ratioP1;P2;durP2;ratioP2
781;SDS011;374;52.568;13.402;2023-03-17T00:01:11;4.93;;;4.50;;
781;SDS011;374;52.568;13.402;2023-03-17T00:03:39;10.83;;;7.10;;
781;SDS011;374;52.568;13.402;2023-03-17T00:06:09;6.73;;;4.87;;
781;SDS011;374;52.568;13.402;2023-03-17T00:08:42;4.90;;;4.37;;
781;SDS011;374;52.568;13.402;2023-03-17T00:11:14;11.43;;;5.50;;
781;SDS011;374;52.568;13.402;2023-03-17T00:13:41;10.47;;;5.10;;
781;SDS011;374;52.568;13.402;2023-03-17T00:16:15;5.00;;;4.50;;
781;SDS011;374;52.568;13.402;2023-03-17T00:18:46;8.03;;;5.80;;
781;SDS011;374;52.568;13.402;2023-03-17T00:21:12;5.60;;;5.00;;
781;SDS011;374;52.568;13.402;2023-03-17T00:23:40;6.00;;;4.70;;
781;SDS011;374;52.568;13.402;2023-03-17T00:26:09;6.83;;;5.00;;
781;SDS011;374;52.568;13.402;2023-03-17T00:28:36;5.93;;;5.37;;
781;SDS011;374;52.568;13.402;2023-03-17T00:31:04;5.43;;;4.83;;
781;SDS011;374;52.568;13.402;2023-03-17T00:33:37;7.07;;;5.70;;
781;SDS011;374;52.568;13.402;2023-03-17T00:36:02;6.30;;;5.40;;
781;SDS011;374;52.568;13.402;2023-03-17T00:38:28;9.20;;;5.30;;
781;SDS011;374;52.568;13.402;2023-03-17T00:40:53;6.60;;;4.80;;
781;SDS011;374;52.568;13.402;2023-03-17T00:43:19;6.20;;;4.50;;
781;SDS011;374;52.568;13.402;2023-03-17T00:45:44;8.97;;;5.47;;
781;SDS011;374;52.568;13.402;2023-03-17T00:48:18;7.03;;;5.70;;
781;SDS011;374;52.568;13.402;2023-03-17T00:50:46;6.13;;;5.00;;
781;SDS011;374;52.568;13.402;2023-03-17T00:53:14;5.57;;;4.97;;
781;SDS011;374;52.568;13.402;2023-03-17T00:55:41;5.17;;;4.70;;
781;SDS011;374;52.568;13.402;2023-03-17T00:58:12;7.07;;;4.80;;
781;SDS011;374;52.568;13.402;2023-03-17T01:00:42;5.97;;;5.00;;
781;SDS011;374;52.568;13.402;2023-03-17T01:03:09;8.87;;;5.10;;
781;SDS011;374;52.568;13.402;2023-03-17T01:05:36;7.93;;;5.07;;
781;SDS011;374;52.568;13.402;2023-03-17T01:08:02;8.73;;;5.50;;
781;SDS011;374;52.568;13.402;2023-03-17T01:10:28;5.47;;;4.80;;
781;SDS011;374;52.568;13.402;2023-03-17T01:12:54;7.17;;;4.83;;
781;SDS011;374;52.568;13.402;2023-03-17T01:15:22;8.47;;;5.50;;
781;SDS011;374;52.568;13.402;2023-03-17T01:17:48;7.67;;;5.30;;
781;SDS011;374;52.568;13.402;2023-03-17T01:20:19;7.40;;;5.10;;
781;SDS011;374;52.568;13.402;2023-03-17T01:22:46;10.13;;;5.80;;
781;SDS011;374;52.568;13.402;2023-03-17T01:25:12;7.17;;;5.50;;
781;SDS011;374;52.568;13.402;2023-03-17T01:27:39;10.30;;;5.37;;
781;SDS011;374;52.568;13.402;2023-03-17T01:30:06;9.40;;;6.00;;
781;SDS011;374;52.568;13.402;2023-03-17T01:32:55;6.63;;;4.83;;
781;SDS011;374;52.568;13.402;2023-03-17T01:35:23;6.80;;;5.20;;
781;SDS011;374;52.568;13.402;2023-03-17T01:37:50;8.10;;;5.90;;
781;SDS011;374;52.568;13.402;2023-03-17T01:40:18;7.77;;;6.30;;
781;SDS011;374;52.568;13.402;2023-03-17T01:42:53;6.23;;;5.63;;
781;SDS011;374;52.568;13.402;2023-03-17T01:48:27;7.97;;;5.80;;
781;SDS011;374;52.568;13.402;2023-03-17T01:50:55;8.60;;;5.10;;
781;SDS011;374;52.568;13.402;2023-03-17T01:53:22;7.90;;;6.40;;
781;SDS011;374;52.568;13.402;2023-03-17T01:55:47;6.57;;;5.70;;
781;SDS011;374;52.568;13.402;2023-03-17T01:58:14;7.63;;;5.77;;
781;SDS011;374;52.568;13.402;2023-03-17T02:00:42;6.93;;;5.40;;
781;SDS011;374;52.568;13.402;2023-03-17T02:03:08;6.80;;;6.10;;
781;SDS011;374;52.568;13.402;2023-03-17T02:05:35;8.57;;;5.67;;
781;SDS011;374;52.568;13.402;2023-03-17T02:08:06;6.30;;;5.60;;
781;SDS011;374;52.568;13.402;2023-03-17T02:10:35;6.27;;;5.67;;
781;SDS011;374;52.568;13.402;2023-03-17T02:13:00;7.57;;;6.77;;
781;SDS011;374;52.568;13.402;2023-03-17T02:15:39;7.00;;;6.30;;
781;SDS011;374;52.568;13.402;2023-03-17T02:18:06;6.67;;;5.17;;
781;SDS011;374;52.568;13.402;2023-03-17T02:23:00;5.90;;;5.30;;
781;SDS011;374;52.568;13.402;2023-03-17T02:25:28;10.33;;;6.00;;
781;SDS011;374;52.568;13.402;2023-03-17T02:28:18;8.47;;;5.60;;
781;SDS011;374;52.568;13.402;2023-03-17T02:30:42;8.07;;;5.50;;
781;SDS011;374;52.568;13.402;2023-03-17T02:33:08;7.03;;;6.17;;
781;SDS011;374;52.568;13.402;2023-03-17T02:35:35;7.47;;;6.20;;
781;SDS011;374;52.568;13.402;2023-03-17T02:38:01;8.10;;;5.87;;
781;SDS011;374;52.568;13.402;2023-03-17T02:40:27;6.37;;;5.77;;
781;SDS011;374;52.568;13.402;2023-03-17T02:42:53;10.00;;;5.90;;
781;SDS011;374;52.568;13.402;2023-03-17T02:45:19;8.47;;;6.00;;
781;SDS011;374;52.568;13.402;2023-03-17T02:47:44;7.43;;;5.90;;
781;SDS011;374;52.568;13.402;2023-03-17T02:50:16;9.67;;;6.60;;
781;SDS011;374;52.568;13.402;2023-03-17T02:52:43;8.07;;;5.80;;
781;SDS011;374;52.568;13.402;2023-03-17T02:55:09;8.53;;;5.77;;
781;SDS011;374;52.568;13.402;2023-03-17T02:57:34;9.10;;;6.07;;
781;SDS011;374;52.568;13.402;2023-03-17T03:00:00;7.00;;;5.90;;
781;SDS011;374;52.568;13.402;2023-03-17T03:02:27;14.07;;;6.33;;
781;SDS011;374;52.568;13.402;2023-03-17T03:04:52;6.80;;;6.10;;
781;SDS011;374;52.568;13.402;2023-03-17T03:07:18;10.00;;;6.20;;
781;SDS011;374;52.568;13.402;2023-03-17T03:09:44;9.50;;;6.17;;
781;SDS011;374;52.568;13.402;2023-03-17T03:12:09;9.60;;;6.13;;
781;SDS011;374;52.568;13.402;2023-03-17T03:14:35;9.03;;;6.00;;
781;SDS011;374;52.568;13.402;2023-03-17T03:17:01;7.90;;;5.93;;
781;SDS011;374;52.568;13.402;2023-03-17T03:19:28;8.10;;;5.83;;
781;SDS011;374;52.568;13.402;2023-03-17T03:21:53;9.37;;;6.73;;
781;SDS011;374;52.568;13.402;2023-03-17T03:24:19;8.27;;;5.70;;
781;SDS011;374;52.568;13.402;2023-03-17T03:26:44;7.00;;;5.90;;
781;SDS011;374;52.568;13.402;2023-03-17T03:29:10;7.97;;;6.00;;
781;SDS011;374;52.568;13.402;2023-03-17T03:31:35;8.47;;;6.10;;
781;SDS011;374;52.568;13.402;2023-03-17T03:34:01;6.47;;;5.47;;
781;SDS011;374;52.568;13.402;2023-03-17T03:36:26;8.23;;;6.10;;
781;SDS011;374;52.568;13.402;2023-03-17T03:38:52;8.83;;;6.63;;
781;SDS011;374;52.568;13.402;2023-03-17T03:41:18;7.93;;;6.03;;
781;SDS011;374;52.568;13.402;2023-03-17T03:43:43;10.60;;;5.73;;
781;SDS011;374;52.568;13.402;2023-03-17T03:46:09;6.57;;;5.80;;
781;SDS011;374;52.568;13.402;2023-03-17T03:48:35;11.00;;;7.13;;
781;SDS011;374;52.568;13.402;2023-03-17T03:51:00;6.10;;;5.33;;
781;SDS011;374;52.568;13.402;2023-03-17T03:53:27;11.97;;;6.03;;
781;SDS011;374;52.568;13.402;2023-03-17T03:55:53;6.47;;;5.47;;
781;SDS011;374;52.568;13.402;2023-03-17T03:58:19;10.37;;;6.43;;
781;SDS011;374;52.568;13.402;2023-03-17T04:00:44;6.70;;;5.30;;
781;SDS011;374;52.568;13.402;2023-03-17T04:03:10;6.73;;;5.80;;
781;SDS011;374;52.568;13.402;2023-03-17T04:05:36;8.23;;;6.00;;
781;SDS011;374;52.568;13.402;2023-03-17T04:08:05;8.73;;;5.80;;
781;SDS011;374;52.568;13.402;2023-03-17T04:10:31;9.20;;;5.70;;
781;SDS011;374;52.568;13.402;2023-03-17T04:12:57;6.40;;;5.60;;
781;SDS011;374;52.568;13.402;2023-03-17T04:15:23;7.37;;;5.17;;
781;SDS011;374;52.568;13.402;2023-03-17T04:17:48;8.73;;;6.70;;
781;SDS011;374;52.568;13.402;2023-03-17T04:20:14;6.60;;;5.53;;
781;SDS011;374;52.568;13.402;2023-03-17T04:22:41;10.07;;;5.93;;
781;SDS011;374;52.568;13.402;2023-03-17T04:25:07;8.67;;;6.57;;
781;SDS011;374;52.568;13.402;2023-03-17T04:27:38;9.47;;;5.40;;
781;SDS011;374;52.568;13.402;2023-03-17T04:30:04;6.73;;;5.70;;
781;SDS011;374;52.568;13.402;2023-03-17T04:32:30;6.93;;;5.40;;
781;SDS011;374;52.568;13.402;2023-03-17T04:34:55;13.53;;;5.73;;
781;SDS011;374;52.568;13.402;2023-03-17T04:37:21;8.53;;;5.50;;
781;SDS011;374;52.568;13.402;2023-03-17T04:39:50;7.37;;;6.03;;
781;SDS011;374;52.568;13.402;2023-03-17T04:42:16;9.63;;;6.20;;
781;SDS011;374;52.568;13.402;2023-03-17T04:44:41;6.80;;;5.93;;
781;SDS011;374;52.568;13.402;2023-03-17T04:47:08;8.70;;;5.93;;
781;SDS011;374;52.568;13.402;2023-03-17T04:49:33;6.50;;;5.00;;
781;SDS011;374;52.568;13.402;2023-03-17T04:51:59;6.80;;;5.10;;
781;SDS011;374;52.568;13.402;2023-03-17T04:54:25;6.07;;;5.47;;
781;SDS011;374;52.568;13.402;2023-03-17T04:56:50;8.33;;;5.27;;
781;SDS011;374;52.568;13.402;2023-03-17T04:59:16;7.47;;;5.27;;
781;SDS011;374;52.568;13.402;2023-03-17T05:01:41;6.33;;;4.83;;
781;SDS011;374;52.568;13.402;2023-03-17T05:04:07;9.97;;;4.93;;
781;SDS011;374;52.568;13.402;2023-03-17T05:06:33;8.80;;;5.30;;
781;SDS011;374;52.568;13.402;2023-03-17T05:08:58;10.33;;;5.80;;
781;SDS011;374;52.568;13.402;2023-03-17T05:11:27;8.80;;;6.53;;
781;SDS011;374;52.568;13.402;2023-03-17T05:13:53;6.23;;;5.03;;
781;SDS011;374;52.568;13.402;2023-03-17T05:16:26;6.73;;;4.90;;
781;SDS011;374;52.568;13.402;2023-03-17T05:18:54;5.73;;;4.87;;
781;SDS011;374;52.568;13.402;2023-03-17T05:21:44;7.93;;;5.13;;
781;SDS011;374;52.568;13.402;2023-03-17T05:24:11;6.10;;;5.20;;
781;SDS011;374;52.568;13.402;2023-03-17T05:26:37;6.87;;;5.07;;
781;SDS011;374;52.568;13.402;2023-03-17T05:29:03;7.93;;;6.07;;
781;SDS011;374;52.568;13.402;2023-03-17T05:31:28;6.53;;;5.13;;
781;SDS011;374;52.568;13.402;2023-03-17T05:33:54;6.93;;;4.73;;
781;SDS011;374;52.568;13.402;2023-03-17T05:36:20;7.23;;;5.13;;
781;SDS011;374;52.568;13.402;2023-03-17T05:38:46;8.90;;;5.50;;
781;SDS011;374;52.568;13.402;2023-03-17T05:41:12;7.73;;;4.77;;
781;SDS011;374;52.568;13.402;2023-03-17T05:43:37;7.30;;;4.77;;
781;SDS011;374;52.568;13.402;2023-03-17T05:46:03;6.73;;;5.33;;
781;SDS011;374;52.568;13.402;2023-03-17T05:48:29;7.33;;;4.53;;
781;SDS011;374;52.568;13.402;2023-03-17T05:50:55;7.77;;;6.00;;
781;SDS011;374;52.568;13.402;2023-03-17T05:53:21;6.30;;;5.17;;
781;SDS011;374;52.568;13.402;2023-03-17T05:55:47;6.77;;;5.00;;
781;SDS011;374;52.568;13.402;2023-03-17T05:58:13;8.30;;;4.67;;
781;SDS011;374;52.568;13.402;2023-03-17T06:00:39;6.27;;;4.90;;
781;SDS011;374;52.568;13.402;2023-03-17T06:03:05;4.77;;;4.27;;
781;SDS011;374;52.568;13.402;2023-03-17T06:05:31;11.27;;;5.10;;
781;SDS011;374;52.568;13.402;2023-03-17T06:07:57;8.87;;;6.03;;
781;SDS011;374;52.568;13.402;2023-03-17T06:10:23;7.00;;;5.30;;
781;SDS011;374;52.568;13.402;2023-03-17T06:12:49;6.10;;;5.27;;
781;SDS011;374;52.568;13.402;2023-03-17T06:15:15;6.97;;;4.97;;
781;SDS011;374;52.568;13.402;2023-03-17T06:17:41;9.60;;;4.57;;
781;SDS011;374;52.568;13.402;2023-03-17T06:20:06;7.77;;;4.90;;
781;SDS011;374;52.568;13.402;2023-03-17T06:22:32;7.00;;;4.20;;
781;SDS011;374;52.568;13.402;2023-03-17T06:24:58;10.33;;;4.97;;
781;SDS011;374;52.568;13.402;2023-03-17T06:27:23;6.27;;;5.07;;
781;SDS011;374;52.568;13.402;2023-03-17T06:29:49;6.60;;;4.83;;
781;SDS011;374;52.568;13.402;2023-03-17T06:32:14;6.40;;;4.80;;
781;SDS011;374;52.568;13.402;2023-03-17T06:34:40;7.30;;;5.47;;
781;SDS011;374;52.568;13.402;2023-03-17T06:37:06;7.17;;;5.40;;
781;SDS011;374;52.568;13.402;2023-03-17T06:39:34;7.97;;;5.30;;
781;SDS011;374;52.568;13.402;2023-03-17T06:41:59;7.47;;;4.93;;
781;SDS011;374;52.568;13.402;2023-03-17T06:44:25;8.60;;;5.20;;
781;SDS011;374;52.568;13.402;2023-03-17T06:46:51;7.70;;;5.10;;
781;SDS011;374;52.568;13.402;2023-03-17T06:49:19;8.00;;;4.70;;
781;SDS011;374;52.568;13.402;2023-03-17T06:51:44;7.10;;;5.03;;
781;SDS011;374;52.568;13.402;2023-03-17T06:54:10;5.67;;;5.07;;
781;SDS011;374;52.568;13.402;2023-03-17T06:56:36;8.53;;;5.30;;
781;SDS011;374;52.568;13.402;2023-03-17T06:59:02;14.40;;;6.27;;
781;SDS011;374;52.568;13.402;2023-03-17T07:01:28;11.57;;;7.53;;
781;SDS011;374;52.568;13.402;2023-03-17T07:03:54;7.90;;;5.30;;
781;SDS011;374;52.568;13.402;2023-03-17T07:06:20;8.40;;;5.27;;
781;SDS011;374;52.568;13.402;2023-03-17T07:08:47;10.33;;;5.73;;
781;SDS011;374;52.568;13.402;2023-03-17T07:11:13;9.93;;;5.80;;
781;SDS011;374;52.568;13.402;2023-03-17T07:13:39;12.83;;;6.17;;
781;SDS011;374;52.568;13.402;2023-03-17T07:16:05;7.87;;;5.77;;
781;SDS011;374;52.568;13.402;2023-03-17T07:18:31;14.37;;;5.37;;
781;SDS011;374;52.568;13.402;2023-03-17T07:20:57;6.50;;;5.37;;
781;SDS011;374;52.568;13.402;2023-03-17T07:23:26;10.03;;;6.73;;
781;SDS011;374;52.568;13.402;2023-03-17T07:25:53;10.10;;;5.50;;
781;SDS011;374;52.568;13.402;2023-03-17T07:28:19;8.73;;;6.03;;
781;SDS011;374;52.568;13.402;2023-03-17T07:30:46;10.07;;;5.50;;
781;SDS011;374;52.568;13.402;2023-03-17T07:33:13;7.87;;;5.60;;
781;SDS011;374;52.568;13.402;2023-03-17T07:35:39;9.80;;;5.10;;
781;SDS011;374;52.568;13.402;2023-03-17T07:38:05;6.10;;;5.10;;
781;SDS011;374;52.568;13.402;2023-03-17T07:40:31;6.80;;;5.77;;
781;SDS011;374;52.568;13.402;2023-03-17T07:42:56;5.87;;;5.27;;
781;SDS011;374;52.568;13.402;2023-03-17T07:45:22;9.10;;;5.97;;
781;SDS011;374;52.568;13.402;2023-03-17T07:47:48;8.63;;;5.30;;
781;SDS011;374;52.568;13.402;2023-03-17T07:50:13;9.10;;;5.93;;
781;SDS011;374;52.568;13.402;2023-03-17T07:52:39;9.73;;;6.40;;
781;SDS011;374;52.568;13.402;2023-03-17T07:55:06;8.73;;;6.10;;
781;SDS011;374;52.568;13.402;2023-03-17T07:57:34;9.20;;;5.77;;
781;SDS011;374;52.568;13.402;2023-03-17T08:00:00;12.60;;;5.67;;
781;SDS011;374;52.568;13.402;2023-03-17T08:02:26;5.83;;;4.73;;
781;SDS011;374;52.568;13.402;2023-03-17T08:04:51;8.17;;;5.40;;
781;SDS011;374;52.568;13.402;2023-03-17T08:07:17;9.77;;;6.00;;
781;SDS011;374;52.568;13.402;2023-03-17T08:09:43;7.13;;;4.80;;
781;SDS011;374;52.568;13.402;2023-03-17T08:12:09;9.73;;;5.93;;
781;SDS011;374;52.568;13.402;2023-03-17T08:14:35;6.90;;;5.27;;
781;SDS011;374;52.568;13.402;2023-03-17T08:17:00;6.03;;;5.20;;
781;SDS011;374;52.568;13.402;2023-03-17T08:19:26;7.73;;;5.77;;
781;SDS011;374;52.568;13.402;2023-03-17T08:21:52;5.53;;;4.60;;
781;SDS011;374;52.568;13.402;2023-03-17T08:24:17;6.23;;;5.23;;
781;SDS011;374;52.568;13.402;2023-03-17T08:26:47;9.17;;;5.90;;
781;SDS011;374;52.568;13.402;2023-03-17T08:29:13;6.77;;;5.97;;
781;SDS011;374;52.568;13.402;2023-03-17T08:31:39;5.37;;;4.53;;
781;SDS011;374;52.568;13.402;2023-03-17T08:34:05;6.23;;;4.93;;
781;SDS011;374;52.568;13.402;2023-03-17T08:36:31;5.77;;;5.17;;
781;SDS011;374;52.568;13.402;2023-03-17T08:38:57;7.43;;;4.60;;
781;SDS011;374;52.568;13.402;2023-03-17T08:41:23;7.77;;;5.33;;
781;SDS011;374;52.568;13.402;2023-03-17T08:43:50;6.93;;;4.87;;
781;SDS011;374;52.568;13.402;2023-03-17T08:46:18;8.10;;;5.70;;
781;SDS011;374;52.568;13.402;2023-03-17T08:48:46;10.00;;;9.03;;
781;SDS011;374;52.568;13.402;2023-03-17T08:51:13;6.60;;;4.73;;
781;SDS011;374;52.568;13.402;2023-03-17T08:53:39;9.87;;;5.47;;
781;SDS011;374;52.568;13.402;2023-03-17T08:56:06;8.73;;;5.87;;
781;SDS011;374;52.568;13.402;2023-03-17T08:58:32;5.90;;;5.07;;
781;SDS011;374;52.568;13.402;2023-03-17T09:01:00;6.50;;;5.33;;
781;SDS011;374;52.568;13.402;2023-03-17T09:03:27;7.33;;;5.70;;
781;SDS011;374;52.568;13.402;2023-03-17T09:05:52;8.00;;;6.57;;
781;SDS011;374;52.568;13.402;2023-03-17T09:08:18;5.67;;;5.03;;
781;SDS011;374;52.568;13.402;2023-03-17T09:10:45;8.90;;;5.77;;
781;SDS011;374;52.568;13.402;2023-03-17T09:13:11;6.87;;;4.90;;
781;SDS011;374;52.568;13.402;2023-03-17T09:15:37;7.03;;;4.63;;
781;SDS011;374;52.568;13.402;2023-03-17T09:18:03;6.30;;;5.57;;
781;SDS011;374;52.568;13.402;2023-03-17T09:20:29;9.50;;;5.00;;
781;SDS011;374;52.568;13.402;2023-03-17T09:22:55;8.27;;;4.93;;
781;SDS011;374;52.568;13.402;2023-03-17T09:25:21;9.60;;;4.77;;
781;SDS011;374;52.568;13.402;2023-03-17T09:27:47;6.70;;;5.40;;
781;SDS011;374;52.568;13.402;2023-03-17T09:30:13;6.80;;;5.60;;
781;SDS011;374;52.568;13.402;2023-03-17T09:32:39;9.20;;;5.53;;
781;SDS011;374;52.568;13.402;2023-03-17T09:35:04;10.07;;;6.03;;
781;SDS011;374;52.568;13.402;2023-03-17T09:37:30;4.80;;;4.40;;
781;SDS011;374;52.568;13.402;2023-03-17T09:39:58;7.67;;;5.73;;
781;SDS011;374;52.568;13.402;2023-03-17T09:42:36;6.13;;;5.53;;
781;SDS011;374;52.568;13.402;2023-03-17T09:50:55;4.87;;;4.37;;
781;SDS011;374;52.568;13.402;2023-03-17T09:53:34;4.90;;;4.40;;
781;SDS011;374;52.568;13.402;2023-03-17T09:56:07;6.97;;;4.70;;
781;SDS011;374;52.568;13.402;2023-03-17T09:58:36;5.80;;;4.63;;
781;SDS011;374;52.568;13.402;2023-03-17T10:01:04;6.80;;;5.20;;
781;SDS011;374;52.568;13.402;2023-03-17T10:03:32;7.23;;;4.83;;
781;SDS011;374;52.568;13.402;2023-03-17T10:06:06;8.53;;;5.77;;
781;SDS011;374;52.568;13.402;2023-03-17T10:08:46;7.80;;;4.37;;
781;SDS011;374;52.568;13.402;2023-03-17T10:11:33;6.40;;;5.50;;
781;SDS011;374;52.568;13.402;2023-03-17T10:16:52;7.60;;;5.20;;
781;SDS011;374;52.568;13.402;2023-03-17T10:19:31;6.77;;;4.50;;
781;SDS011;374;52.568;13.402;2023-03-17T10:22:17;7.43;;;5.40;;
781;SDS011;374;52.568;13.402;2023-03-17T10:24:52;7.10;;;6.10;;
781;SDS011;374;52.568;13.402;2023-03-17T10:27:21;7.23;;;4.93;;
781;SDS011;374;52.568;13.402;2023-03-17T10:29:47;6.07;;;5.07;;
781;SDS011;374;52.568;13.402;2023-03-17T10:32:13;5.13;;;4.50;;
781;SDS011;374;52.568;13.402;2023-03-17T10:34:40;6.60;;;4.13;;
781;SDS011;374;52.568;13.402;2023-03-17T10:37:07;5.27;;;4.70;;
781;SDS011;374;52.568;13.402;2023-03-17T10:39:45;4.80;;;4.00;;
781;SDS011;374;52.568;13.402;2023-03-17T10:42:18;6.20;;;4.87;;
781;SDS011;374;52.568;13.402;2023-03-17T10:44:51;5.30;;;4.80;;
781;SDS011;374;52.568;13.402;2023-03-17T10:50:03;5.37;;;4.87;;
781;SDS011;374;52.568;13.402;2023-03-17T10:52:47;6.23;;;4.20;;
781;SDS011;374;52.568;13.402;2023-03-17T10:55:18;8.07;;;4.83;;
781;SDS011;374;52.568;13.402;2023-03-17T10:57:51;6.87;;;4.30;;
781;SDS011;374;52.568;13.402;2023-03-17T11:00:25;6.80;;;4.00;;
781;SDS011;374;52.568;13.402;2023-03-17T11:02:57;5.20;;;4.13;;
781;SDS011;374;52.568;13.402;2023-03-17T11:05:25;6.13;;;4.07;;
781;SDS011;374;52.568;13.402;2023-03-17T11:07:56;5.63;;;4.40;;
781;SDS011;374;52.568;13.402;2023-03-17T11:10:35;6.10;;;4.13;;
781;SDS011;374;52.568;13.402;2023-03-17T11:13:03;6.60;;;4.23;;
781;SDS011;374;52.568;13.402;2023-03-17T11:15:39;6.50;;;4.80;;
781;SDS011;374;52.568;13.402;2023-03-17T11:18:24;7.73;;;4.60;;
781;SDS011;374;52.568;13.402;2023-03-17T11:21:04;7.93;;;4.47;;
781;SDS011;374;52.568;13.402;2023-03-17T11:23:46;5.53;;;4.50;;
781;SDS011;374;52.568;13.402;2023-03-17T11:26:37;4.20;;;3.80;;
781;SDS011;374;52.568;13.402;2023-03-17T11:29:32;6.37;;;4.10;;
781;SDS011;374;52.568;13.402;2023-03-17T11:34:48;4.87;;;3.70;;
781;SDS011;374;52.568;13.402;2023-03-17T11:37:40;4.43;;;3.77;;
781;SDS011;374;52.568;13.402;2023-03-17T11:40:18;8.47;;;4.33;;
781;SDS011;374;52.568;13.402;2023-03-17T11:50:54;5.07;;;4.17;;
781;SDS011;374;52.568;13.402;2023-03-17T11:54:02;6.57;;;3.87;;
781;SDS011;374;52.568;13.402;2023-03-17T11:56:39;4.70;;;3.70;;
781;SDS011;374;52.568;13.402;2023-03-17T11:59:11;4.80;;;3.63;;
781;SDS011;374;52.568;13.402;2023-03-17T12:01:52;3.53;;;3.17;;
781;SDS011;374;52.568;13.402;2023-03-17T12:04:34;4.20;;;3.73;;
781;SDS011;374;52.568;13.402;2023-03-17T12:07:27;4.13;;;3.43;;
781;SDS011;374;52.568;13.402;2023-03-17T12:10:09;4.83;;;4.13;;
781;SDS011;374;52.568;13.402;2023-03-17T12:12:47;6.83;;;4.30;;
781;SDS011;374;52.568;13.402;2023-03-17T12:18:26;6.33;;;3.50;;
781;SDS011;374;52.568;13.402;2023-03-17T12:23:50;4.40;;;3.53;;
781;SDS011;374;52.568;13.402;2023-03-17T12:28:58;5.53;;;3.33;;
781;SDS011;374;52.568;13.402;2023-03-17T12:31:32;4.77;;;3.73;;
781;SDS011;374;52.568;13.402;2023-03-17T12:34:14;4.40;;;3.57;;
781;SDS011;374;52.568;13.402;2023-03-17T12:36:54;6.97;;;3.80;;
781;SDS011;374;52.568;13.402;2023-03-17T12:39:22;3.90;;;3.27;;
781;SDS011;374;52.568;13.402;2023-03-17T12:42:13;4.63;;;3.43;;
781;SDS011;374;52.568;13.402;2023-03-17T12:44:55;3.50;;;3.20;;
781;SDS011;374;52.568;13.402;2023-03-17T12:55:55;6.37;;;3.80;;
781;SDS011;374;52.568;13.402;2023-03-17T12:58:45;4.43;;;3.67;;
781;SDS011;374;52.568;13.402;2023-03-17T13:04:24;4.20;;;3.60;;
781;SDS011;374;52.568;13.402;2023-03-17T13:12:00;4.87;;;4.23;;
781;SDS011;374;52.568;13.402;2023-03-17T13:20:02;5.77;;;3.77;;
781;SDS011;374;52.568;13.402;2023-03-17T13:30:42;6.57;;;3.10;;
781;SDS011;374;52.568;13.402;2023-03-17T13:33:31;4.80;;;3.30;;
781;SDS011;374;52.568;13.402;2023-03-17T13:36:10;3.50;;;3.30;;
781;SDS011;374;52.568;13.402;2023-03-17T13:47:43;3.50;;;3.20;;
781;SDS011;374;52.568;13.402;2023-03-17T13:49:56;4.27;;;3.20;;
781;SDS011;374;52.568;13.402;2023-03-17T13:52:32;4.43;;;3.37;;
781;SDS011;374;52.568;13.402;2023-03-17T13:55:04;8.83;;;2.87;;
781;SDS011;374;52.568;13.402;2023-03-17T13:58:14;3.83;;;2.90;;
781;SDS011;374;52.568;13.402;2023-03-17T14:00:46;5.50;;;3.37;;
781;SDS011;374;52.568;13.402;2023-03-17T14:03:36;5.73;;;2.90;;
781;SDS011;374;52.568;13.402;2023-03-17T14:06:06;3.60;;;3.30;;
781;SDS011;374;52.568;13.402;2023-03-17T14:08:37;4.50;;;3.13;;
781;SDS011;374;52.568;13.402;2023-03-17T14:11:43;4.97;;;4.47;;
781;SDS011;374;52.568;13.402;2023-03-17T14:14:10;3.40;;;3.10;;
781;SDS011;374;52.568;13.402;2023-03-17T14:16:50;6.53;;;3.30;;
781;SDS011;374;52.568;13.402;2023-03-17T14:19:24;3.77;;;3.30;;
781;SDS011;374;52.568;13.402;2023-03-17T14:21:53;5.40;;;3.10;;
781;SDS011;374;52.568;13.402;2023-03-17T14:24:23;4.40;;;3.07;;
781;SDS011;374;52.568;13.402;2023-03-17T14:27:07;9.57;;;3.13;;
781;SDS011;374;52.568;13.402;2023-03-17T14:29:39;5.37;;;3.03;;
781;SDS011;374;52.568;13.402;2023-03-17T14:34:40;3.70;;;3.10;;
781;SDS011;374;52.568;13.402;2023-03-17T14:37:17;5.30;;;3.27;;
781;SDS011;374;52.568;13.402;2023-03-17T14:39:44;2.90;;;2.70;;
781;SDS011;374;52.568;13.402;2023-03-17T14:42:12;12.23;;;3.47;;
781;SDS011;374;52.568;13.402;2023-03-17T14:44:39;5.10;;;2.70;;
781;SDS011;374;52.568;13.402;2023-03-17T14:47:19;2.93;;;2.63;;
781;SDS011;374;52.568;13.402;2023-03-17T14:49:49;4.20;;;2.97;;
781;SDS011;374;52.568;13.402;2023-03-17T14:52:20;4.30;;;4.00;;
781;SDS011;374;52.568;13.402;2023-03-17T14:54:56;4.30;;;3.40;;
781;SDS011;374;52.568;13.402;2023-03-17T14:57:26;4.40;;;3.37;;
781;SDS011;374;52.568;13.402;2023-03-17T15:02:55;4.70;;;3.13;;
781;SDS011;374;52.568;13.402;2023-03-17T15:05:37;4.70;;;3.40;;
781;SDS011;374;52.568;13.402;2023-03-17T15:11:14;8.00;;;4.40;;
781;SDS011;374;52.568;13.402;2023-03-17T15:13:47;4.33;;;2.70;;
781;SDS011;374;52.568;13.402;2023-03-17T15:16:26;3.50;;;3.20;;
781;SDS011;374;52.568;13.402;2023-03-17T15:19:14;6.57;;;3.83;;
781;SDS011;374;52.568;13.402;2023-03-17T15:21:44;4.37;;;3.27;;
781;SDS011;374;52.568;13.402;2023-03-17T15:24:18;3.80;;;3.37;;
781;SDS011;374;52.568;13.402;2023-03-17T15:26:49;4.20;;;3.80;;
781;SDS011;374;52.568;13.402;2023-03-17T15:29:14;4.17;;;3.37;;
781;SDS011;374;52.568;13.402;2023-03-17T15:31:40;6.07;;;3.63;;
781;SDS011;374;52.568;13.402;2023-03-17T15:34:08;6.63;;;3.33;;
781;SDS011;374;52.568;13.402;2023-03-17T15:36:37;4.00;;;3.50;;
781;SDS011;374;52.568;13.402;2023-03-17T15:39:02;4.13;;;3.03;;
781;SDS011;374;52.568;13.402;2023-03-17T15:41:29;5.10;;;3.77;;
781;SDS011;374;52.568;13.402;2023-03-17T15:43:54;6.20;;;3.03;;
781;SDS011;374;52.568;13.402;2023-03-17T15:46:24;4.47;;;3.10;;
781;SDS011;374;52.568;13.402;2023-03-17T15:48:51;3.90;;;3.60;;
781;SDS011;374;52.568;13.402;2023-03-17T15:51:17;3.60;;;3.03;;
781;SDS011;374;52.568;13.402;2023-03-17T15:53:42;3.60;;;3.30;;
781;SDS011;374;52.568;13.402;2023-03-17T15:56:14;5.40;;;3.43;;
781;SDS011;374;52.568;13.402;2023-03-17T15:58:42;6.73;;;4.07;;
781;SDS011;374;52.568;13.402;2023-03-17T16:01:09;4.70;;;3.80;;
781;SDS011;374;52.568;13.402;2023-03-17T16:03:36;3.13;;;2.83;;
781;SDS011;374;52.568;13.402;2023-03-17T16:06:03;4.27;;;3.37;;
781;SDS011;374;52.568;13.402;2023-03-17T16:08:31;3.17;;;2.90;;
781;SDS011;374;52.568;13.402;2023-03-17T16:10:57;3.83;;;3.13;;
781;SDS011;374;52.568;13.402;2023-03-17T16:13:23;3.20;;;3.00;;
781;SDS011;374;52.568;13.402;2023-03-17T16:15:51;3.60;;;3.30;;
781;SDS011;374;52.568;13.402;2023-03-17T16:18:21;4.37;;;3.40;;
781;SDS011;374;52.568;13.402;2023-03-17T16:21:14;5.23;;;3.80;;
781;SDS011;374;52.568;13.402;2023-03-17T16:23:42;5.07;;;3.67;;
781;SDS011;374;52.568;13.402;2023-03-17T16:26:08;3.67;;;3.37;;
781;SDS011;374;52.568;13.402;2023-03-17T16:28:33;4.00;;;3.70;;
781;SDS011;374;52.568;13.402;2023-03-17T16:30:59;5.07;;;3.20;;
781;SDS011;374;52.568;13.402;2023-03-17T16:33:30;8.37;;;3.87;;
781;SDS011;374;52.568;13.402;2023-03-17T16:36:01;5.83;;;3.93;;
781;SDS011;374;52.568;13.402;2023-03-17T16:38:28;4.13;;;3.80;;
781;SDS011;374;52.568;13.402;2023-03-17T16:40:59;4.20;;;3.63;;
781;SDS011;374;52.568;13.402;2023-03-17T16:43:31;6.40;;;4.30;;
781;SDS011;374;52.568;13.402;2023-03-17T16:46:00;5.33;;;4.27;;
781;SDS011;374;52.568;13.402;2023-03-17T16:48:27;4.30;;;3.90;;
781;SDS011;374;52.568;13.402;2023-03-17T16:50:53;5.50;;;4.17;;
781;SDS011;374;52.568;13.402;2023-03-17T16:53:19;6.63;;;4.10;;
781;SDS011;374;52.568;13.402;2023-03-17T16:55:45;4.30;;;3.90;;
781;SDS011;374;52.568;13.402;2023-03-17T16:58:14;5.83;;;4.60;;
781;SDS011;374;52.568;13.402;2023-03-17T17:00:45;4.57;;;3.50;;
781;SDS011;374;52.568;13.402;2023-03-17T17:03:12;5.13;;;4.10;;
781;SDS011;374;52.568;13.402;2023-03-17T17:05:38;4.87;;;3.77;;
781;SDS011;374;52.568;13.402;2023-03-17T17:08:05;4.17;;;3.63;;